sensor_id;sensor_type;location;lat;lon;timestamp;P1;durP1;ratioP1;P2;durP2;ratioP2
35330;SDS011;21441;52.190;20.910;2024-02-21T00:00:47;16.83;;;6.22;;
35330;SDS011;21441;52.190;20.910;2024-02-21T00:03:35;19.60;;;6.78;;
35330;SDS011;21441;52.190;20.910;2024-02-21T00:06:02;18.05;;;5.97;;
35330;SDS011;21441;52.190;20.910;2024-02-21T00:08:29;13.43;;;6.07;;
35330;SDS011;21441;52.190;20.910;2024-02-21T00:10:55;19.70;;;6.85;;
35330;SDS011;21441;52.190;20.910;2024-02-21T00:13:22;15.73;;;7.10;;
35330;SDS011;21441;52.190;20.910;2024-02-21T00:15:50;14.65;;;6.97;;
35330;SDS011;21441;52.190;20.910;2024-02-21T00:18:16;13.13;;;6.78;;
35330;SDS011;21441;52.190;20.910;2024-02-21T00:20:44;15.27;;;6.15;;
35330;SDS011;21441;52.190;20.910;2024-02-21T00:23:11;19.63;;;7.22;;
35330;SDS011;21441;52.190;20.910;2024-02-21T00:25:38;15.65;;;6.68;;
35330;SDS011;21441;52.190;20.910;2024-02-21T00:28:05;17.73;;;6.60;;
35330;SDS011;21441;52.190;20.910;2024-02-21T00:30:32;13.88;;;7.18;;
35330;SDS011;21441;52.190;20.910;2024-02-21T00:32:58;15.02;;;6.45;;
35330;SDS011;21441;52.190;20.910;2024-02-21T00:35:25;13.95;;;6.65;;
35330;SDS011;21441;52.190;20.910;2024-02-21T00:37:53;19.52;;;8.50;;
35330;SDS011;21441;52.190;20.910;2024-02-21T00:40:20;14.25;;;5.93;;
35330;SDS011;21441;52.190;20.910;2024-02-21T00:42:47;16.25;;;6.45;;
35330;SDS011;21441;52.190;20.910;2024-02-21T00:45:14;13.73;;;6.97;;
35330;SDS011;21441;52.190;20.910;2024-02-21T00:47:41;18.98;;;7.35;;
35330;SDS011;21441;52.190;20.910;2024-02-21T00:50:08;12.40;;;6.00;;
35330;SDS011;21441;52.190;20.910;2024-02-21T00:52:34;16.75;;;7.15;;
35330;SDS011;21441;52.190;20.910;2024-02-21T00:55:03;16.95;;;6.80;;
35330;SDS011;21441;52.190;20.910;2024-02-21T00:57:30;23.40;;;8.55;;
35330;SDS011;21441;52.190;20.910;2024-02-21T00:59:57;16.00;;;6.70;;
35330;SDS011;21441;52.190;20.910;2024-02-21T01:02:24;19.02;;;6.82;;
35330;SDS011;21441;52.190;20.910;2024-02-21T01:04:51;18.05;;;6.60;;
35330;SDS011;21441;52.190;20.910;2024-02-21T01:07:17;17.15;;;7.28;;
35330;SDS011;21441;52.190;20.910;2024-02-21T01:09:44;14.38;;;6.78;;
35330;SDS011;21441;52.190;20.910;2024-02-21T01:12:12;15.80;;;7.18;;
35330;SDS011;21441;52.190;20.910;2024-02-21T01:14:39;16.35;;;7.85;;
35330;SDS011;21441;52.190;20.910;2024-02-21T01:17:05;18.00;;;8.15;;
35330;SDS011;21441;52.190;20.910;2024-02-21T01:19:32;15.95;;;7.38;;
35330;SDS011;21441;52.190;20.910;2024-02-21T01:21:59;11.57;;;7.22;;
35330;SDS011;21441;52.190;20.910;2024-02-21T01:24:26;15.85;;;8.10;;
35330;SDS011;21441;52.190;20.910;2024-02-21T01:26:52;13.65;;;6.35;;
35330;SDS011;21441;52.190;20.910;2024-02-21T01:29:21;23.13;;;8.65;;
35330;SDS011;21441;52.190;20.910;2024-02-21T01:31:47;18.60;;;7.00;;
35330;SDS011;21441;52.190;20.910;2024-02-21T01:34:14;18.88;;;7.18;;
35330;SDS011;21441;52.190;20.910;2024-02-21T01:36:41;19.88;;;7.95;;
35330;SDS011;21441;52.190;20.910;2024-02-21T01:39:08;15.38;;;7.55;;
35330;SDS011;21441;52.190;20.910;2024-02-21T01:41:34;17.42;;;7.15;;
35330;SDS011;21441;52.190;20.910;2024-02-21T01:44:01;15.25;;;7.55;;
35330;SDS011;21441;52.190;20.910;2024-02-21T01:46:29;14.40;;;6.07;;
35330;SDS011;21441;52.190;20.910;2024-02-21T01:48:56;18.58;;;7.32;;
35330;SDS011;21441;52.190;20.910;2024-02-21T01:51:23;14.05;;;7.00;;
35330;SDS011;21441;52.190;20.910;2024-02-21T01:53:51;16.27;;;7.85;;
35330;SDS011;21441;52.190;20.910;2024-02-21T01:56:17;12.43;;;7.15;;
35330;SDS011;21441;52.190;20.910;2024-02-21T01:58:44;17.13;;;7.70;;
35330;SDS011;21441;52.190;20.910;2024-02-21T02:01:12;19.42;;;8.73;;
35330;SDS011;21441;52.190;20.910;2024-02-21T02:03:40;24.27;;;8.45;;
35330;SDS011;21441;52.190;20.910;2024-02-21T02:06:07;19.60;;;8.38;;
35330;SDS011;21441;52.190;20.910;2024-02-21T02:08:34;19.27;;;7.90;;
35330;SDS011;21441;52.190;20.910;2024-02-21T02:11:00;17.23;;;8.23;;
35330;SDS011;21441;52.190;20.910;2024-02-21T02:13:28;17.60;;;7.97;;
35330;SDS011;21441;52.190;20.910;2024-02-21T02:15:54;23.13;;;9.00;;
35330;SDS011;21441;52.190;20.910;2024-02-21T02:18:21;15.98;;;7.43;;
35330;SDS011;21441;52.190;20.910;2024-02-21T02:20:49;18.30;;;7.80;;
35330;SDS011;21441;52.190;20.910;2024-02-21T02:23:21;23.02;;;9.07;;
35330;SDS011;21441;52.190;20.910;2024-02-21T02:25:47;15.73;;;7.30;;
35330;SDS011;21441;52.190;20.910;2024-02-21T02:28:17;20.00;;;8.47;;
35330;SDS011;21441;52.190;20.910;2024-02-21T02:30:43;20.65;;;8.43;;
35330;SDS011;21441;52.190;20.910;2024-02-21T02:33:10;17.25;;;8.25;;
35330;SDS011;21441;52.190;20.910;2024-02-21T02:35:37;15.57;;;7.25;;
35330;SDS011;21441;52.190;20.910;2024-02-21T02:38:04;25.10;;;8.63;;
35330;SDS011;21441;52.190;20.910;2024-02-21T02:40:33;16.10;;;8.32;;
35330;SDS011;21441;52.190;20.910;2024-02-21T02:43:00;18.50;;;9.13;;
35330;SDS011;21441;52.190;20.910;2024-02-21T02:45:26;25.25;;;9.52;;
35330;SDS011;21441;52.190;20.910;2024-02-21T02:47:53;21.67;;;9.75;;
35330;SDS011;21441;52.190;20.910;2024-02-21T02:50:20;17.95;;;8.60;;
35330;SDS011;21441;52.190;20.910;2024-02-21T02:52:47;20.02;;;9.52;;
35330;SDS011;21441;52.190;20.910;2024-02-21T02:55:14;17.50;;;8.80;;
35330;SDS011;21441;52.190;20.910;2024-02-21T02:57:42;21.10;;;9.27;;
35330;SDS011;21441;52.190;20.910;2024-02-21T03:00:10;18.90;;;8.35;;
35330;SDS011;21441;52.190;20.910;2024-02-21T03:02:37;21.60;;;9.18;;
35330;SDS011;21441;52.190;20.910;2024-02-21T03:05:11;19.52;;;9.80;;
35330;SDS011;21441;52.190;20.910;2024-02-21T03:07:38;18.63;;;9.57;;
35330;SDS011;21441;52.190;20.910;2024-02-21T03:10:05;23.90;;;9.90;;
35330;SDS011;21441;52.190;20.910;2024-02-21T03:12:32;22.27;;;9.93;;
35330;SDS011;21441;52.190;20.910;2024-02-21T03:14:59;20.73;;;9.25;;
35330;SDS011;21441;52.190;20.910;2024-02-21T03:17:26;17.65;;;9.57;;
35330;SDS011;21441;52.190;20.910;2024-02-21T03:19:53;21.00;;;10.93;;
35330;SDS011;21441;52.190;20.910;2024-02-21T03:22:21;20.30;;;9.65;;
35330;SDS011;21441;52.190;20.910;2024-02-21T03:24:47;25.55;;;11.45;;
35330;SDS011;21441;52.190;20.910;2024-02-21T03:27:14;19.00;;;11.07;;
35330;SDS011;21441;52.190;20.910;2024-02-21T03:29:41;24.23;;;10.38;;
35330;SDS011;21441;52.190;20.910;2024-02-21T03:32:09;21.10;;;11.00;;
35330;SDS011;21441;52.190;20.910;2024-02-21T03:34:36;24.60;;;11.02;;
35330;SDS011;21441;52.190;20.910;2024-02-21T03:37:03;20.45;;;10.50;;
35330;SDS011;21441;52.190;20.910;2024-02-21T03:39:30;22.70;;;10.20;;
35330;SDS011;21441;52.190;20.910;2024-02-21T03:41:57;18.08;;;10.05;;
35330;SDS011;21441;52.190;20.910;2024-02-21T03:44:26;20.33;;;10.52;;
35330;SDS011;21441;52.190;20.910;2024-02-21T03:46:53;20.23;;;10.55;;
35330;SDS011;21441;52.190;20.910;2024-02-21T03:49:21;20.48;;;9.90;;
35330;SDS011;21441;52.190;20.910;2024-02-21T03:51:48;23.30;;;10.18;;
35330;SDS011;21441;52.190;20.910;2024-02-21T03:54:14;26.90;;;10.80;;
35330;SDS011;21441;52.190;20.910;2024-02-21T03:56:41;24.27;;;11.13;;
35330;SDS011;21441;52.190;20.910;2024-02-21T03:59:08;16.38;;;9.50;;
35330;SDS011;21441;52.190;20.910;2024-02-21T04:01:35;18.55;;;9.27;;
35330;SDS011;21441;52.190;20.910;2024-02-21T04:04:01;29.75;;;11.23;;
35330;SDS011;21441;52.190;20.910;2024-02-21T04:06:29;25.65;;;10.98;;
35330;SDS011;21441;52.190;20.910;2024-02-21T04:08:56;19.73;;;11.00;;
35330;SDS011;21441;52.190;20.910;2024-02-21T04:11:23;21.52;;;10.70;;
35330;SDS011;21441;52.190;20.910;2024-02-21T04:13:50;28.17;;;11.60;;
35330;SDS011;21441;52.190;20.910;2024-02-21T04:16:17;22.05;;;11.30;;
35330;SDS011;21441;52.190;20.910;2024-02-21T04:18:43;27.40;;;11.13;;
35330;SDS011;21441;52.190;20.910;2024-02-21T04:21:11;22.42;;;12.43;;
35330;SDS011;21441;52.190;20.910;2024-02-21T04:23:41;30.25;;;13.68;;
35330;SDS011;21441;52.190;20.910;2024-02-21T04:26:08;32.53;;;15.45;;
35330;SDS011;21441;52.190;20.910;2024-02-21T04:28:35;29.05;;;15.82;;
35330;SDS011;21441;52.190;20.910;2024-02-21T04:31:02;31.33;;;16.33;;
35330;SDS011;21441;52.190;20.910;2024-02-21T04:33:29;27.55;;;15.60;;
35330;SDS011;21441;52.190;20.910;2024-02-21T04:35:56;34.75;;;15.75;;
35330;SDS011;21441;52.190;20.910;2024-02-21T04:38:24;33.15;;;15.93;;
35330;SDS011;21441;52.190;20.910;2024-02-21T04:40:52;33.58;;;14.63;;
35330;SDS011;21441;52.190;20.910;2024-02-21T04:43:18;34.45;;;15.73;;
35330;SDS011;21441;52.190;20.910;2024-02-21T04:45:45;31.30;;;14.40;;
35330;SDS011;21441;52.190;20.910;2024-02-21T04:48:12;30.48;;;15.15;;
35330;SDS011;21441;52.190;20.910;2024-02-21T04:50:39;26.13;;;14.98;;
35330;SDS011;21441;52.190;20.910;2024-02-21T04:53:06;23.10;;;13.63;;
35330;SDS011;21441;52.190;20.910;2024-02-21T04:55:33;27.05;;;13.65;;
35330;SDS011;21441;52.190;20.910;2024-02-21T04:58:01;26.10;;;13.07;;
35330;SDS011;21441;52.190;20.910;2024-02-21T05:00:28;22.52;;;12.00;;
35330;SDS011;21441;52.190;20.910;2024-02-21T05:02:55;29.33;;;13.65;;
35330;SDS011;21441;52.190;20.910;2024-02-21T05:05:22;20.70;;;12.52;;
35330;SDS011;21441;52.190;20.910;2024-02-21T05:07:49;26.30;;;13.05;;
35330;SDS011;21441;52.190;20.910;2024-02-21T05:10:16;25.30;;;14.23;;
35330;SDS011;21441;52.190;20.910;2024-02-21T05:12:43;27.48;;;12.63;;
35330;SDS011;21441;52.190;20.910;2024-02-21T05:15:11;26.30;;;12.93;;
35330;SDS011;21441;52.190;20.910;2024-02-21T05:17:37;24.35;;;12.10;;
35330;SDS011;21441;52.190;20.910;2024-02-21T05:20:05;24.98;;;12.65;;
35330;SDS011;21441;52.190;20.910;2024-02-21T05:22:32;25.92;;;12.07;;
35330;SDS011;21441;52.190;20.910;2024-02-21T05:24:59;30.02;;;12.52;;
35330;SDS011;21441;52.190;20.910;2024-02-21T05:27:25;21.52;;;12.15;;
35330;SDS011;21441;52.190;20.910;2024-02-21T05:29:53;22.10;;;13.30;;
35330;SDS011;21441;52.190;20.910;2024-02-21T05:32:21;28.60;;;13.38;;
35330;SDS011;21441;52.190;20.910;2024-02-21T05:34:48;23.63;;;12.50;;
35330;SDS011;21441;52.190;20.910;2024-02-21T05:37:15;29.38;;;13.18;;
35330;SDS011;21441;52.190;20.910;2024-02-21T05:39:42;20.80;;;12.18;;
35330;SDS011;21441;52.190;20.910;2024-02-21T05:42:08;22.55;;;11.88;;
35330;SDS011;21441;52.190;20.910;2024-02-21T05:44:35;31.10;;;14.15;;
35330;SDS011;21441;52.190;20.910;2024-02-21T05:47:02;25.65;;;13.95;;
35330;SDS011;21441;52.190;20.910;2024-02-21T05:49:30;27.08;;;13.35;;
35330;SDS011;21441;52.190;20.910;2024-02-21T05:51:57;25.70;;;13.32;;
35330;SDS011;21441;52.190;20.910;2024-02-21T05:54:24;27.70;;;13.77;;
35330;SDS011;21441;52.190;20.910;2024-02-21T05:56:51;23.13;;;12.35;;
35330;SDS011;21441;52.190;20.910;2024-02-21T05:59:19;29.98;;;13.32;;
35330;SDS011;21441;52.190;20.910;2024-02-21T06:01:45;25.73;;;14.82;;
35330;SDS011;21441;52.190;20.910;2024-02-21T06:04:21;28.17;;;14.20;;
35330;SDS011;21441;52.190;20.910;2024-02-21T06:06:49;29.98;;;14.73;;
35330;SDS011;21441;52.190;20.910;2024-02-21T06:09:16;24.63;;;13.13;;
35330;SDS011;21441;52.190;20.910;2024-02-21T06:11:43;30.23;;;16.60;;
35330;SDS011;21441;52.190;20.910;2024-02-21T06:14:11;25.95;;;15.90;;
35330;SDS011;21441;52.190;20.910;2024-02-21T06:16:38;25.23;;;14.90;;
35330;SDS011;21441;52.190;20.910;2024-02-21T06:19:05;31.15;;;14.30;;
35330;SDS011;21441;52.190;20.910;2024-02-21T06:21:32;30.13;;;15.93;;
35330;SDS011;21441;52.190;20.910;2024-02-21T06:24:00;27.73;;;15.77;;
35330;SDS011;21441;52.190;20.910;2024-02-21T06:26:26;35.22;;;18.73;;
35330;SDS011;21441;52.190;20.910;2024-02-21T06:28:53;33.03;;;15.75;;
35330;SDS011;21441;52.190;20.910;2024-02-21T06:31:20;33.38;;;16.00;;
35330;SDS011;21441;52.190;20.910;2024-02-21T06:33:47;30.17;;;15.02;;
35330;SDS011;21441;52.190;20.910;2024-02-21T06:36:14;32.03;;;16.23;;
35330;SDS011;21441;52.190;20.910;2024-02-21T06:38:41;34.55;;;16.13;;
35330;SDS011;21441;52.190;20.910;2024-02-21T06:41:15;30.80;;;16.00;;
35330;SDS011;21441;52.190;20.910;2024-02-21T06:43:44;34.97;;;17.33;;
35330;SDS011;21441;52.190;20.910;2024-02-21T06:46:11;36.35;;;16.75;;
35330;SDS011;21441;52.190;20.910;2024-02-21T06:48:38;28.27;;;16.73;;
35330;SDS011;21441;52.190;20.910;2024-02-21T06:51:04;32.83;;;16.80;;
35330;SDS011;21441;52.190;20.910;2024-02-21T06:53:31;28.67;;;16.40;;
35330;SDS011;21441;52.190;20.910;2024-02-21T06:55:58;35.55;;;16.52;;
35330;SDS011;21441;52.190;20.910;2024-02-21T06:58:26;35.38;;;16.40;;
35330;SDS011;21441;52.190;20.910;2024-02-21T07:00:52;31.50;;;16.60;;
35330;SDS011;21441;52.190;20.910;2024-02-21T07:03:19;33.00;;;16.52;;
35330;SDS011;21441;52.190;20.910;2024-02-21T07:05:46;42.35;;;17.27;;
35330;SDS011;21441;52.190;20.910;2024-02-21T07:08:13;30.35;;;16.27;;
35330;SDS011;21441;52.190;20.910;2024-02-21T07:10:40;36.90;;;16.73;;
35330;SDS011;21441;52.190;20.910;2024-02-21T07:13:07;34.22;;;15.20;;
35330;SDS011;21441;52.190;20.910;2024-02-21T07:15:34;29.65;;;16.48;;
35330;SDS011;21441;52.190;20.910;2024-02-21T07:18:02;33.92;;;16.15;;
35330;SDS011;21441;52.190;20.910;2024-02-21T07:20:28;32.65;;;16.30;;
35330;SDS011;21441;52.190;20.910;2024-02-21T07:22:55;33.42;;;16.15;;
35330;SDS011;21441;52.190;20.910;2024-02-21T07:25:22;37.03;;;16.95;;
35330;SDS011;21441;52.190;20.910;2024-02-21T07:27:49;33.95;;;17.42;;
35330;SDS011;21441;52.190;20.910;2024-02-21T07:30:16;30.25;;;15.73;;
35330;SDS011;21441;52.190;20.910;2024-02-21T07:32:44;33.35;;;15.80;;
35330;SDS011;21441;52.190;20.910;2024-02-21T07:35:19;32.95;;;15.65;;
35330;SDS011;21441;52.190;20.910;2024-02-21T07:37:49;36.70;;;16.77;;
35330;SDS011;21441;52.190;20.910;2024-02-21T07:40:16;29.93;;;16.00;;
35330;SDS011;21441;52.190;20.910;2024-02-21T07:42:43;35.75;;;17.15;;
35330;SDS011;21441;52.190;20.910;2024-02-21T07:45:10;33.45;;;16.10;;
35330;SDS011;21441;52.190;20.910;2024-02-21T07:47:37;36.08;;;17.42;;
35330;SDS011;21441;52.190;20.910;2024-02-21T07:50:05;30.33;;;15.43;;
35330;SDS011;21441;52.190;20.910;2024-02-21T07:52:32;32.42;;;15.50;;
35330;SDS011;21441;52.190;20.910;2024-02-21T07:54:59;44.90;;;16.73;;
35330;SDS011;21441;52.190;20.910;2024-02-21T07:57:26;32.97;;;14.60;;
35330;SDS011;21441;52.190;20.910;2024-02-21T07:59:53;37.58;;;16.92;;
35330;SDS011;21441;52.190;20.910;2024-02-21T08:02:20;37.33;;;16.85;;
35330;SDS011;21441;52.190;20.910;2024-02-21T08:04:47;38.90;;;17.05;;
35330;SDS011;21441;52.190;20.910;2024-02-21T08:07:16;30.58;;;16.23;;
35330;SDS011;21441;52.190;20.910;2024-02-21T08:09:42;34.90;;;16.98;;
35330;SDS011;21441;52.190;20.910;2024-02-21T08:12:17;35.95;;;16.25;;
35330;SDS011;21441;52.190;20.910;2024-02-21T08:14:44;36.72;;;16.85;;
35330;SDS011;21441;52.190;20.910;2024-02-21T08:19:43;45.15;;;15.38;;
35330;SDS011;21441;52.190;20.910;2024-02-21T08:22:10;42.10;;;17.92;;
35330;SDS011;21441;52.190;20.910;2024-02-21T08:24:38;40.17;;;17.02;;
35330;SDS011;21441;52.190;20.910;2024-02-21T08:27:07;35.00;;;18.05;;
35330;SDS011;21441;52.190;20.910;2024-02-21T08:29:41;33.65;;;16.13;;
35330;SDS011;21441;52.190;20.910;2024-02-21T08:32:08;35.45;;;17.88;;
35330;SDS011;21441;52.190;20.910;2024-02-21T08:34:37;32.67;;;17.65;;
35330;SDS011;21441;52.190;20.910;2024-02-21T08:37:05;37.78;;;17.90;;
35330;SDS011;21441;52.190;20.910;2024-02-21T08:39:35;34.58;;;16.40;;
35330;SDS011;21441;52.190;20.910;2024-02-21T08:42:08;35.78;;;15.70;;
35330;SDS011;21441;52.190;20.910;2024-02-21T08:44:39;33.45;;;15.82;;
35330;SDS011;21441;52.190;20.910;2024-02-21T08:47:11;34.30;;;15.45;;
35330;SDS011;21441;52.190;20.910;2024-02-21T08:49:38;35.33;;;16.05;;
35330;SDS011;21441;52.190;20.910;2024-02-21T08:52:09;37.10;;;15.35;;
35330;SDS011;21441;52.190;20.910;2024-02-21T08:54:51;36.65;;;17.13;;
35330;SDS011;21441;52.190;20.910;2024-02-21T08:57:25;39.45;;;16.00;;
35330;SDS011;21441;52.190;20.910;2024-02-21T08:59:51;26.95;;;14.55;;
35330;SDS011;21441;52.190;20.910;2024-02-21T09:02:30;26.90;;;13.60;;
35330;SDS011;21441;52.190;20.910;2024-02-21T09:05:02;29.98;;;13.60;;
35330;SDS011;21441;52.190;20.910;2024-02-21T09:07:34;30.23;;;14.45;;
35330;SDS011;21441;52.190;20.910;2024-02-21T09:10:13;30.85;;;15.60;;
35330;SDS011;21441;52.190;20.910;2024-02-21T09:12:48;28.10;;;13.38;;
35330;SDS011;21441;52.190;20.910;2024-02-21T09:15:15;31.65;;;13.32;;
35330;SDS011;21441;52.190;20.910;2024-02-21T09:17:42;36.38;;;14.63;;
35330;SDS011;21441;52.190;20.910;2024-02-21T09:20:09;31.77;;;14.40;;
35330;SDS011;21441;52.190;20.910;2024-02-21T09:22:37;27.23;;;14.70;;
35330;SDS011;21441;52.190;20.910;2024-02-21T09:25:07;30.13;;;12.57;;
35330;SDS011;21441;52.190;20.910;2024-02-21T09:27:37;25.75;;;12.60;;
35330;SDS011;21441;52.190;20.910;2024-02-21T09:30:06;28.35;;;13.02;;
35330;SDS011;21441;52.190;20.910;2024-02-21T09:32:33;31.92;;;13.35;;
35330;SDS011;21441;52.190;20.910;2024-02-21T09:34:59;28.33;;;13.32;;
35330;SDS011;21441;52.190;20.910;2024-02-21T09:37:26;25.38;;;11.43;;
35330;SDS011;21441;52.190;20.910;2024-02-21T09:39:53;20.58;;;9.43;;
35330;SDS011;21441;52.190;20.910;2024-02-21T09:42:24;20.48;;;9.25;;
35330;SDS011;21441;52.190;20.910;2024-02-21T09:44:56;21.98;;;9.68;;
35330;SDS011;21441;52.190;20.910;2024-02-21T09:47:27;19.67;;;9.32;;
35330;SDS011;21441;52.190;20.910;2024-02-21T09:49:57;25.23;;;10.85;;
35330;SDS011;21441;52.190;20.910;2024-02-21T09:52:24;21.80;;;8.18;;
35330;SDS011;21441;52.190;20.910;2024-02-21T09:54:52;18.80;;;9.25;;
35330;SDS011;21441;52.190;20.910;2024-02-21T09:57:20;16.52;;;8.93;;
35330;SDS011;21441;52.190;20.910;2024-02-21T09:59:46;25.20;;;9.77;;
35330;SDS011;21441;52.190;20.910;2024-02-21T10:02:13;18.42;;;9.25;;
35330;SDS011;21441;52.190;20.910;2024-02-21T10:04:41;21.08;;;11.23;;
35330;SDS011;21441;52.190;20.910;2024-02-21T10:07:09;23.75;;;8.95;;
35330;SDS011;21441;52.190;20.910;2024-02-21T10:09:36;14.70;;;7.10;;
35330;SDS011;21441;52.190;20.910;2024-02-21T10:12:09;19.63;;;8.00;;
35330;SDS011;21441;52.190;20.910;2024-02-21T10:14:36;22.38;;;8.35;;
35330;SDS011;21441;52.190;20.910;2024-02-21T10:17:03;21.15;;;8.68;;
35330;SDS011;21441;52.190;20.910;2024-02-21T10:19:34;19.02;;;8.18;;
35330;SDS011;21441;52.190;20.910;2024-02-21T10:22:03;24.80;;;8.93;;
35330;SDS011;21441;52.190;20.910;2024-02-21T10:24:30;21.42;;;8.65;;
35330;SDS011;21441;52.190;20.910;2024-02-21T10:27:04;20.45;;;8.95;;
35330;SDS011;21441;52.190;20.910;2024-02-21T10:29:33;24.48;;;9.85;;
35330;SDS011;21441;52.190;20.910;2024-02-21T10:32:04;16.55;;;8.65;;
35330;SDS011;21441;52.190;20.910;2024-02-21T10:36:59;25.75;;;9.43;;
35330;SDS011;21441;52.190;20.910;2024-02-21T10:39:27;20.08;;;9.80;;
35330;SDS011;21441;52.190;20.910;2024-02-21T10:41:54;21.73;;;10.15;;
35330;SDS011;21441;52.190;20.910;2024-02-21T10:44:22;23.08;;;9.68;;
35330;SDS011;21441;52.190;20.910;2024-02-21T10:46:50;23.42;;;10.52;;
35330;SDS011;21441;52.190;20.910;2024-02-21T10:49:19;21.65;;;11.82;;
35330;SDS011;21441;52.190;20.910;2024-02-21T10:51:49;19.55;;;10.35;;
35330;SDS011;21441;52.190;20.910;2024-02-21T10:54:23;25.52;;;10.77;;
35330;SDS011;21441;52.190;20.910;2024-02-21T10:56:54;23.25;;;11.57;;
35330;SDS011;21441;52.190;20.910;2024-02-21T10:59:22;22.88;;;11.75;;
35330;SDS011;21441;52.190;20.910;2024-02-21T11:01:49;22.48;;;11.60;;
35330;SDS011;21441;52.190;20.910;2024-02-21T11:04:17;21.67;;;12.45;;
35330;SDS011;21441;52.190;20.910;2024-02-21T11:06:45;22.58;;;12.10;;
35330;SDS011;21441;52.190;20.910;2024-02-21T11:09:12;21.40;;;11.95;;
35330;SDS011;21441;52.190;20.910;2024-02-21T11:11:39;22.25;;;12.68;;
35330;SDS011;21441;52.190;20.910;2024-02-21T11:14:08;28.48;;;12.98;;
35330;SDS011;21441;52.190;20.910;2024-02-21T11:16:35;26.30;;;13.23;;
35330;SDS011;21441;52.190;20.910;2024-02-21T11:19:06;25.33;;;13.00;;
35330;SDS011;21441;52.190;20.910;2024-02-21T11:21:33;25.40;;;13.00;;
35330;SDS011;21441;52.190;20.910;2024-02-21T11:24:01;31.83;;;13.57;;
35330;SDS011;21441;52.190;20.910;2024-02-21T11:26:28;26.17;;;13.75;;
35330;SDS011;21441;52.190;20.910;2024-02-21T11:28:58;25.73;;;13.93;;
35330;SDS011;21441;52.190;20.910;2024-02-21T11:31:27;26.45;;;14.23;;
35330;SDS011;21441;52.190;20.910;2024-02-21T11:34:04;33.05;;;14.50;;
35330;SDS011;21441;52.190;20.910;2024-02-21T11:36:31;25.40;;;12.60;;
35330;SDS011;21441;52.190;20.910;2024-02-21T11:39:02;25.55;;;13.63;;
35330;SDS011;21441;52.190;20.910;2024-02-21T11:41:30;31.80;;;15.20;;
35330;SDS011;21441;52.190;20.910;2024-02-21T11:43:56;29.48;;;14.55;;
35330;SDS011;21441;52.190;20.910;2024-02-21T11:46:23;26.88;;;14.68;;
35330;SDS011;21441;52.190;20.910;2024-02-21T11:48:51;35.80;;;14.88;;
35330;SDS011;21441;52.190;20.910;2024-02-21T11:51:21;27.75;;;14.10;;
35330;SDS011;21441;52.190;20.910;2024-02-21T11:53:50;22.15;;;13.68;;
35330;SDS011;21441;52.190;20.910;2024-02-21T11:56:17;27.45;;;14.63;;
35330;SDS011;21441;52.190;20.910;2024-02-21T11:58:45;27.73;;;16.27;;
35330;SDS011;21441;52.190;20.910;2024-02-21T12:01:12;28.73;;;14.68;;
35330;SDS011;21441;52.190;20.910;2024-02-21T12:03:39;28.27;;;15.32;;
35330;SDS011;21441;52.190;20.910;2024-02-21T12:06:08;33.40;;;15.93;;
35330;SDS011;21441;52.190;20.910;2024-02-21T12:08:44;34.38;;;15.80;;
35330;SDS011;21441;52.190;20.910;2024-02-21T12:11:18;34.60;;;15.10;;
35330;SDS011;21441;52.190;20.910;2024-02-21T12:13:45;28.92;;;15.90;;
35330;SDS011;21441;52.190;20.910;2024-02-21T12:16:14;33.85;;;17.15;;
35330;SDS011;21441;52.190;20.910;2024-02-21T12:18:41;33.75;;;16.67;;
35330;SDS011;21441;52.190;20.910;2024-02-21T12:21:10;26.50;;;15.68;;
35330;SDS011;21441;52.190;20.910;2024-02-21T12:23:37;28.30;;;15.48;;
35330;SDS011;21441;52.190;20.910;2024-02-21T12:26:04;26.85;;;16.33;;
35330;SDS011;21441;52.190;20.910;2024-02-21T12:28:31;33.10;;;16.55;;
35330;SDS011;21441;52.190;20.910;2024-02-21T12:30:59;32.55;;;18.00;;
35330;SDS011;21441;52.190;20.910;2024-02-21T12:33:25;27.60;;;16.02;;
35330;SDS011;21441;52.190;20.910;2024-02-21T12:35:52;36.50;;;18.50;;
35330;SDS011;21441;52.190;20.910;2024-02-21T12:38:21;28.50;;;15.35;;
35330;SDS011;21441;52.190;20.910;2024-02-21T12:40:48;31.15;;;17.33;;
35330;SDS011;21441;52.190;20.910;2024-02-21T12:43:15;27.90;;;17.20;;
35330;SDS011;21441;52.190;20.910;2024-02-21T12:45:43;34.72;;;17.30;;
35330;SDS011;21441;52.190;20.910;2024-02-21T12:48:09;29.60;;;17.33;;
35330;SDS011;21441;52.190;20.910;2024-02-21T12:50:36;25.02;;;16.85;;
35330;SDS011;21441;52.190;20.910;2024-02-21T12:53:03;40.85;;;18.08;;
35330;SDS011;21441;52.190;20.910;2024-02-21T12:55:32;28.63;;;16.05;;
35330;SDS011;21441;52.190;20.910;2024-02-21T12:58:02;24.77;;;16.35;;
35330;SDS011;21441;52.190;20.910;2024-02-21T13:00:30;37.47;;;18.30;;
35330;SDS011;21441;52.190;20.910;2024-02-21T13:02:57;35.70;;;16.88;;
35330;SDS011;21441;52.190;20.910;2024-02-21T13:05:25;24.75;;;15.30;;
35330;SDS011;21441;52.190;20.910;2024-02-21T13:07:53;25.50;;;12.63;;
35330;SDS011;21441;52.190;20.910;2024-02-21T13:10:20;27.38;;;15.10;;
35330;SDS011;21441;52.190;20.910;2024-02-21T13:12:48;32.45;;;16.17;;
35330;SDS011;21441;52.190;20.910;2024-02-21T13:15:15;28.33;;;14.43;;
35330;SDS011;21441;52.190;20.910;2024-02-21T13:17:43;24.27;;;12.80;;
35330;SDS011;21441;52.190;20.910;2024-02-21T13:20:10;29.10;;;15.52;;
35330;SDS011;21441;52.190;20.910;2024-02-21T13:22:37;25.27;;;14.82;;
35330;SDS011;21441;52.190;20.910;2024-02-21T13:25:05;26.40;;;13.90;;
35330;SDS011;21441;52.190;20.910;2024-02-21T13:27:33;26.73;;;14.77;;
35330;SDS011;21441;52.190;20.910;2024-02-21T13:30:01;27.25;;;15.40;;
35330;SDS011;21441;52.190;20.910;2024-02-21T13:32:31;26.30;;;15.25;;
35330;SDS011;21441;52.190;20.910;2024-02-21T13:34:58;31.48;;;15.95;;
35330;SDS011;21441;52.190;20.910;2024-02-21T13:37:27;27.88;;;14.23;;
35330;SDS011;21441;52.190;20.910;2024-02-21T13:39:54;30.20;;;14.35;;
35330;SDS011;21441;52.190;20.910;2024-02-21T13:42:21;33.55;;;15.40;;
35330;SDS011;21441;52.190;20.910;2024-02-21T13:44:49;25.02;;;12.38;;
35330;SDS011;21441;52.190;20.910;2024-02-21T13:47:17;25.50;;;14.73;;
35330;SDS011;21441;52.190;20.910;2024-02-21T13:49:44;24.77;;;14.38;;
35330;SDS011;21441;52.190;20.910;2024-02-21T13:52:11;24.83;;;13.75;;
35330;SDS011;21441;52.190;20.910;2024-02-21T13:54:38;25.75;;;15.13;;
35330;SDS011;21441;52.190;20.910;2024-02-21T13:57:05;25.58;;;14.55;;
35330;SDS011;21441;52.190;20.910;2024-02-21T13:59:32;29.42;;;14.57;;
35330;SDS011;21441;52.190;20.910;2024-02-21T14:01:59;25.23;;;14.45;;
35330;SDS011;21441;52.190;20.910;2024-02-21T14:04:27;26.05;;;13.05;;
35330;SDS011;21441;52.190;20.910;2024-02-21T14:06:55;32.92;;;12.35;;
35330;SDS011;21441;52.190;20.910;2024-02-21T14:09:25;22.33;;;12.77;;
35330;SDS011;21441;52.190;20.910;2024-02-21T14:11:51;21.30;;;12.18;;
35330;SDS011;21441;52.190;20.910;2024-02-21T14:14:19;21.02;;;12.63;;
35330;SDS011;21441;52.190;20.910;2024-02-21T14:16:45;21.67;;;12.73;;
35330;SDS011;21441;52.190;20.910;2024-02-21T14:19:13;27.25;;;13.57;;
35330;SDS011;21441;52.190;20.910;2024-02-21T14:21:41;22.95;;;11.45;;